Time;durP1;ratioP1;P1;durP2;ratioP2;P2;SDS_P1;SDS_P2;PMS_P1;PMS_P2;Temp;Humidity;BMP_temperature;BMP_pressure;BME280_temperature;BME280_humidity;BME280_pressure;Samples;Min_cycle;Max_cycle;Signal;HPM_P1;HPM_P2
2021/07/29 00:00:34;;;;;;;2.47;1.90;;;17.40;37.40;;;;;;6248975;23;20160;-85
2021/07/29 00:02:59;;;;;;;4.30;1.93;;;17.40;37.80;;;;;;6250698;22;20522;-86
2021/07/29 00:05:26;;;;;;;2.50;2.30;;;17.40;37.70;;;;;;6273669;22;20666;-85
2021/07/29 00:07:52;;;;;;;3.40;2.60;;;17.40;37.80;;;;;;6247096;23;20287;-85
2021/07/29 00:10:19;;;;;;;3.13;2.17;;;17.40;37.70;;;;;;6248876;23;20169;-86
2021/07/29 00:12:45;;;;;;;5.33;2.40;;;17.40;37.20;;;;;;6250892;23;20251;-86
2021/07/29 00:15:12;;;;;;;3.67;2.60;;;17.40;38.30;;;;;;6276627;22;20163;-86
2021/07/29 00:20:15;;;;;;;2.93;2.43;;;17.50;38.60;;;;;;6263723;22;20155;-86
2021/07/29 00:22:41;;;;;;;3.27;2.93;;;17.40;38.10;;;;;;6252439;23;20192;-86
2021/07/29 00:25:12;;;;;;;6.13;2.47;;;17.40;37.90;;;;;;6250913;23;20160;-86
2021/07/29 00:27:41;;;;;;;2.50;2.30;;;17.40;38.40;;;;;;6250348;23;20154;-86
2021/07/29 00:30:08;;;;;;;2.73;2.43;;;17.40;38.40;;;;;;6249755;23;20187;-85
2021/07/29 00:32:34;;;;;;;2.97;2.10;;;17.40;39.40;;;;;;6252208;23;20240;-85
2021/07/29 00:35:04;;;;;;;4.77;2.97;;;17.40;39.40;;;;;;6277962;22;20208;-85
2021/07/29 00:37:30;;;;;;;2.50;2.30;;;17.40;40.20;;;;;;6251992;23;20200;-86
2021/07/29 00:39:55;;;;;;;3.17;2.33;;;17.30;40.40;;;;;;6251417;23;20181;-85
2021/07/29 00:42:21;;;;;;;2.63;2.37;;;17.30;40.80;;;;;;6273923;22;20185;-85
2021/07/29 00:44:47;;;;;;;4.20;2.33;;;17.30;40.60;;;;;;6274095;22;20227;-85
2021/07/29 00:47:15;;;;;;;3.67;2.60;;;17.30;39.70;;;;;;6274942;22;20186;-85
2021/07/29 00:49:41;;;;;;;3.03;2.73;;;17.30;40.30;;;;;;6248363;23;20237;-85
2021/07/29 00:52:07;;;;;;;2.40;2.20;;;17.30;40.90;;;;;;6249237;23;20166;-85
2021/07/29 00:54:32;;;;;;;2.67;2.47;;;17.30;40.10;;;;;;6274122;22;20196;-84
2021/07/29 00:56:59;;;;;;;7.27;2.53;;;17.30;41.10;;;;;;6276280;22;20176;-85
2021/07/29 00:59:25;;;;;;;4.33;2.50;;;17.30;39.60;;;;;;6250680;23;20162;-85
2021/07/29 01:01:51;;;;;;;2.80;2.30;;;17.30;39.30;;;;;;6248389;23;20232;-85
2021/07/29 01:04:17;;;;;;;3.23;2.20;;;17.30;36.90;;;;;;6275833;22;20170;-85
2021/07/29 01:06:43;;;;;;;4.53;2.57;;;17.30;36.70;;;;;;6250933;23;20158;-85
2021/07/29 01:09:09;;;;;;;2.57;2.10;;;17.30;37.40;;;;;;6274749;22;20187;-85
2021/07/29 01:11:40;;;;;;;3.07;2.43;;;17.40;36.40;;;;;;6250938;23;20169;-85
2021/07/29 01:14:05;;;;;;;2.80;2.10;;;17.40;34.20;;;;;;6251234;23;20166;-85
2021/07/29 01:16:32;;;;;;;2.93;2.27;;;17.40;34.80;;;;;;6276098;22;20831;-86
2021/07/29 01:18:59;;;;;;;2.83;2.60;;;17.40;31.80;;;;;;6251741;23;20180;-86
2021/07/29 01:21:26;;;;;;;3.17;2.23;;;17.50;32.50;;;;;;6252871;22;20217;-86
2021/07/29 01:23:51;;;;;;;3.20;2.37;;;17.30;32.30;;;;;;6248582;23;20159;-86
2021/07/29 01:26:17;;;;;;;4.07;2.00;;;17.40;32.50;;;;;;6274316;22;20221;-86
2021/07/29 01:28:43;;;;;;;3.33;2.20;;;17.40;33.20;;;;;;6273808;22;20164;-86
2021/07/29 01:31:08;;;;;;;3.57;2.33;;;17.40;31.90;;;;;;6249140;23;20919;-86
2021/07/29 01:33:39;;;;;;;2.80;2.40;;;17.40;32.30;;;;;;6273315;22;20169;-86
2021/07/29 01:36:05;;;;;;;4.90;2.30;;;17.40;31.50;;;;;;6248838;23;20198;-86
2021/07/29 01:38:31;;;;;;;3.30;2.50;;;17.40;32.50;;;;;;6249814;23;20618;-86
2021/07/29 01:40:58;;;;;;;3.57;2.47;;;17.40;30.90;;;;;;6249207;23;20252;-86
2021/07/29 01:43:24;;;;;;;3.07;2.60;;;17.40;32.30;;;;;;6273683;22;20224;-86
2021/07/29 01:45:49;;;;;;;6.10;2.60;;;17.40;30.20;;;;;;6249386;23;20252;-86
2021/07/29 01:48:15;;;;;;;3.40;2.27;;;17.40;30.80;;;;;;6274260;22;20169;-86
2021/07/29 01:50:43;;;;;;;3.53;2.37;;;17.40;31.10;;;;;;6274235;22;20208;-85
2021/07/29 01:53:09;;;;;;;2.43;2.13;;;17.80;31.70;;;;;;6250130;22;20235;-86
2021/07/29 01:55:35;;;;;;;3.30;2.50;;;;;;;;;;6252136;23;20169;-86
2021/07/29 01:58:00;;;;;;;5.27;2.50;;;17.40;29.70;;;;;;6254155;23;20248;-86
2021/07/29 02:00:26;;;;;;;3.20;2.70;;;17.40;30.00;;;;;;6278085;22;20172;-86
2021/07/29 02:02:51;;;;;;;3.10;2.10;;;17.40;29.90;;;;;;6278826;22;20278;-86
2021/07/29 02:05:17;;;;;;;3.53;2.60;;;17.50;28.90;;;;;;6278772;22;20188;-86
2021/07/29 02:07:43;;;;;;;3.30;2.33;;;17.50;28.80;;;;;;6278897;22;20236;-86
2021/07/29 02:10:08;;;;;;;2.80;2.27;;;17.40;28.70;;;;;;6277733;22;20165;-86
2021/07/29 02:12:34;;;;;;;3.57;2.50;;;17.40;28.80;;;;;;6275129;22;20168;-86
2021/07/29 02:15:00;;;;;;;3.27;2.53;;;17.50;28.10;;;;;;6275681;22;20267;-86
2021/07/29 02:17:26;;;;;;;4.30;2.67;;;17.50;27.70;;;;;;6251502;23;20153;-86
2021/07/29 02:19:51;;;;;;;4.27;2.30;;;17.50;27.10;;;;;;6277495;22;20165;-86
2021/07/29 02:22:17;;;;;;;2.50;2.17;;;17.50;26.90;;;;;;6275878;22;20187;-86
2021/07/29 02:24:43;;;;;;;2.60;2.03;;;17.50;27.50;;;;;;6275928;22;20184;-86
2021/07/29 02:27:08;;;;;;;2.50;2.30;;;17.50;27.60;;;;;;6277268;22;20160;-86
2021/07/29 02:29:35;;;;;;;4.40;2.47;;;17.50;26.50;;;;;;6278135;22;20195;-86
2021/07/29 02:32:00;;;;;;;4.47;2.50;;;;;;;;;;6253453;22;20171;-86
2021/07/29 02:34:26;;;;;;;3.13;2.70;;;;;;;;;;6252760;23;20192;-86
2021/07/29 02:36:52;;;;;;;3.07;2.40;;;;;;;;;;6251813;23;20183;-86
2021/07/29 02:39:18;;;;;;;3.20;2.33;;;17.40;27.70;;;;;;6250952;23;20164;-86
2021/07/29 02:41:44;;;;;;;2.50;2.20;;;17.40;27.90;;;;;;6277212;22;20193;-87
2021/07/29 02:44:09;;;;;;;3.43;2.50;;;17.50;27.90;;;;;;6276610;22;20162;-86
2021/07/29 02:46:35;;;;;;;3.33;2.40;;;17.50;28.10;;;;;;6275095;22;20555;-85
2021/07/29 02:49:00;;;;;;;3.03;2.70;;;17.40;28.30;;;;;;6275131;22;20159;-86
2021/07/29 02:51:26;;;;;;;7.23;2.70;;;17.40;28.20;;;;;;6276368;22;20254;-86
2021/07/29 02:53:52;;;;;;;3.03;2.37;;;17.40;28.20;;;;;;6276792;22;20171;-85
2021/07/29 02:56:17;;;;;;;3.90;2.80;;;17.30;29.20;;;;;;6275669;22;20166;-86
2021/07/29 02:58:47;;;;;;;3.13;2.47;;;17.30;30.00;;;;;;6277886;22;20173;-87
2021/07/29 03:01:14;;;;;;;6.93;2.57;;;17.30;30.00;;;;;;6275934;22;20219;-86
2021/07/29 03:03:39;;;;;;;2.90;2.60;;;17.20;30.40;;;;;;6251436;23;20184;-86
2021/07/29 03:06:05;;;;;;;4.33;2.37;;;17.20;31.10;;;;;;6278185;22;20158;-86
2021/07/29 03:08:31;;;;;;;4.13;2.43;;;17.20;32.40;;;;;;6274253;22;20142;-86
2021/07/29 03:10:58;;;;;;;4.23;2.30;;;17.10;31.90;;;;;;6273492;22;20528;-86
2021/07/29 03:13:25;;;;;;;2.93;2.63;;;17.00;32.50;;;;;;6275652;22;20583;-86
2021/07/29 03:15:51;;;;;;;3.33;2.20;;;17.00;33.40;;;;;;6249239;23;20167;-85
2021/07/29 03:18:16;;;;;;;4.50;2.43;;;17.00;33.90;;;;;;6275705;22;20187;-86
2021/07/29 03:20:42;;;;;;;4.20;2.77;;;16.80;34.20;;;;;;6275372;22;20169;-86
2021/07/29 03:23:08;;;;;;;3.93;2.63;;;16.70;35.20;;;;;;6276982;22;20267;-86
2021/07/29 03:25:34;;;;;;;2.77;2.50;;;16.70;35.60;;;;;;6249857;23;20164;-86
2021/07/29 03:28:00;;;;;;;3.87;2.90;;;16.70;36.00;;;;;;6273712;22;20224;-86
2021/07/29 03:30:25;;;;;;;2.60;2.40;;;16.60;37.00;;;;;;6274178;22;20168;-86
2021/07/29 03:32:52;;;;;;;3.17;2.80;;;16.50;37.40;;;;;;6277586;22;20190;-87
2021/07/29 03:35:18;;;;;;;2.73;2.50;;;;;;;;;;6275660;22;20166;-86
2021/07/29 03:37:45;;;;;;;4.73;3.10;;;16.40;39.30;;;;;;6247649;23;20170;-86
2021/07/29 03:40:11;;;;;;;3.00;2.70;;;16.40;39.90;;;;;;6272926;22;20194;-86
2021/07/29 03:42:36;;;;;;;5.77;2.60;;;16.30;40.10;;;;;;6252332;22;20207;-86
2021/07/29 03:45:03;;;;;;;3.33;2.60;;;16.20;40.40;;;;;;6273295;22;20162;-86
2021/07/29 03:47:29;;;;;;;2.57;2.37;;;16.20;40.80;;;;;;6249111;22;20163;-85
2021/07/29 03:49:55;;;;;;;3.40;2.73;;;16.20;42.50;;;;;;6272931;22;20250;-86
2021/07/29 03:52:20;;;;;;;3.50;2.53;;;16.20;42.90;;;;;;6273488;22;20172;-86
2021/07/29 03:54:50;;;;;;;4.07;3.00;;;16.20;42.90;;;;;;6272816;22;20246;-86
2021/07/29 03:57:16;;;;;;;3.00;2.30;;;16.10;42.80;;;;;;6247888;23;20162;-86
2021/07/29 03:59:41;;;;;;;3.93;2.60;;;16.10;42.80;;;;;;6249033;23;20201;-86
2021/07/29 04:02:09;;;;;;;5.40;3.07;;;16.00;42.70;;;;;;6273829;22;20194;-86
2021/07/29 04:04:37;;;;;;;5.33;2.53;;;16.00;42.60;;;;;;6275515;22;20184;-87
2021/07/29 04:07:03;;;;;;;4.20;2.70;;;16.20;42.90;;;;;;6248982;23;20159;-86
2021/07/29 04:09:29;;;;;;;6.43;2.80;;;16.10;41.50;;;;;;6247793;23;20595;-85
2021/07/29 04:11:54;;;;;;;4.10;2.77;;;16.10;41.80;;;;;;6276393;22;20169;-86
2021/07/29 04:14:20;;;;;;;3.87;2.60;;;16.20;41.10;;;;;;6275405;22;20626;-86
2021/07/29 04:16:46;;;;;;;3.10;2.80;;;16.20;41.50;;;;;;6275199;22;20157;-86
2021/07/29 04:19:11;;;;;;;3.10;2.70;;;16.20;39.10;;;;;;6275244;22;20198;-86
2021/07/29 04:21:37;;;;;;;4.93;2.90;;;16.30;38.90;;;;;;6273469;22;20684;-86
2021/07/29 04:24:03;;;;;;;3.17;2.60;;;16.40;38.20;;;;;;6276403;22;20175;-86
2021/07/29 04:26:28;;;;;;;3.03;2.73;;;16.50;35.90;;;;;;6276664;22;20611;-86
2021/07/29 04:28:54;;;;;;;4.43;2.90;;;16.50;34.90;;;;;;6270960;22;20158;-85
2021/07/29 04:31:19;;;;;;;4.17;3.47;;;16.50;34.00;;;;;;6273048;22;20181;-87
2021/07/29 04:33:45;;;;;;;4.73;2.90;;;16.50;35.00;;;;;;6274705;22;20245;-86
2021/07/29 04:36:11;;;;;;;5.40;2.83;;;16.50;34.00;;;;;;6277657;22;20185;-86
2021/07/29 04:38:36;;;;;;;4.33;2.53;;;16.50;35.10;;;;;;6276043;22;20588;-86
2021/07/29 04:41:06;;;;;;;5.63;3.17;;;16.60;34.00;;;;;;6276187;22;20163;-84
2021/07/29 04:43:32;;;;;;;2.97;2.53;;;16.60;33.60;;;;;;6250835;23;20158;-86
2021/07/29 04:46:04;;;;;;;3.87;2.57;;;16.60;32.20;;;;;;6250465;23;20246;-84
2021/07/29 04:48:30;;;;;;;2.93;2.67;;;16.70;32.30;;;;;;6274893;22;20164;-85
2021/07/29 04:51:03;;;;;;;5.40;2.70;;;16.60;32.10;;;;;;6248415;23;20172;-86
2021/07/29 04:53:30;;;;;;;4.53;2.83;;;16.70;30.40;;;;;;6249915;23;20159;-87
2021/07/29 04:55:56;;;;;;;4.17;3.07;;;16.70;30.20;;;;;;6248368;23;20179;-86
2021/07/29 04:58:22;;;;;;;2.83;2.53;;;16.80;29.70;;;;;;6275398;22;20509;-86
2021/07/29 05:00:47;;;;;;;2.90;2.47;;;16.80;29.70;;;;;;6247927;23;20172;-86
2021/07/29 05:03:14;;;;;;;4.40;2.57;;;17.00;27.10;;;;;;6272783;22;20191;-86
2021/07/29 05:05:40;;;;;;;5.57;2.40;;;17.00;27.80;;;;;;6274736;22;20163;-86
2021/07/29 05:08:06;;;;;;;5.40;2.70;;;17.00;28.60;;;;;;6275791;22;20166;-85
2021/07/29 05:10:31;;;;;;;2.73;2.53;;;17.00;27.50;;;;;;6274608;22;20230;-86
2021/07/29 05:12:57;;;;;;;4.63;2.70;;;17.00;28.10;;;;;;6274673;22;20186;-86
2021/07/29 05:15:23;;;;;;;4.27;2.70;;;17.00;27.00;;;;;;6249878;22;20234;-86
2021/07/29 05:17:54;;;;;;;4.73;2.50;;;17.10;27.70;;;;;;6248983;23;20160;-86
2021/07/29 05:20:23;;;;;;;4.50;2.40;;;17.10;26.20;;;;;;6274812;22;20179;-87
2021/07/29 05:22:49;;;;;;;3.43;2.80;;;17.10;26.20;;;;;;6276797;22;20216;-86
2021/07/29 05:25:33;;;;;;;5.30;2.80;;;17.20;26.30;;;;;;6248922;23;20156;-86
2021/07/29 05:27:59;;;;;;;4.17;2.93;;;17.10;26.20;;;;;;6273038;22;20163;-86
2021/07/29 05:30:24;;;;;;;8.23;2.70;;;17.10;26.80;;;;;;6275698;22;20183;-86
2021/07/29 05:32:50;;;;;;;4.43;2.90;;;17.20;27.60;;;;;;6280976;22;20172;-85
2021/07/29 05:35:15;;;;;;;4.40;2.40;;;17.20;26.30;;;;;;6277908;22;20161;-86
2021/07/29 05:37:41;;;;;;;4.97;3.20;;;17.20;26.30;;;;;;6277335;22;20151;-87
2021/07/29 05:40:07;;;;;;;5.77;3.13;;;17.30;25.90;;;;;;6275567;22;20174;-87
2021/07/29 05:42:34;;;;;;;4.53;3.20;;;17.30;25.90;;;;;;6250119;23;20191;-86
2021/07/29 05:45:00;;;;;;;3.40;2.53;;;17.30;26.40;;;;;;6252133;23;20188;-86
2021/07/29 05:47:26;;;;;;;4.77;2.87;;;17.50;25.30;;;;;;6250787;23;20187;-87
2021/07/29 05:49:51;;;;;;;6.20;3.00;;;17.50;24.50;;;;;;6273545;22;20242;-86
2021/07/29 05:52:17;;;;;;;2.80;2.50;;;17.50;24.90;;;;;;6277485;22;20169;-87
2021/07/29 05:54:43;;;;;;;3.00;2.70;;;17.60;24.50;;;;;;6275845;22;20179;-86
2021/07/29 05:57:08;;;;;;;3.20;2.70;;;17.70;22.90;;;;;;6276541;22;20233;-88
2021/07/29 05:59:34;;;;;;;3.37;2.77;;;17.70;22.90;;;;;;6276653;22;20238;-86
2021/07/29 06:02:00;;;;;;;2.93;2.63;;;17.70;23.60;;;;;;6275773;22;20196;-86
2021/07/29 06:04:25;;;;;;;4.13;3.17;;;17.80;22.70;;;;;;6277102;22;20173;-86
2021/07/29 06:06:51;;;;;;;4.77;2.63;;;17.80;22.20;;;;;;6278098;22;20215;-88
2021/07/29 06:09:17;;;;;;;2.93;2.47;;;18.00;22.50;;;;;;6279836;22;20500;-87
2021/07/29 06:11:42;;;;;;;4.40;2.50;;;18.10;22.00;;;;;;6275033;22;20872;-89
2021/07/29 06:14:08;;;;;;;5.43;2.80;;;18.20;20.10;;;;;;6277672;22;20176;-91
2021/07/29 06:16:33;;;;;;;3.47;3.03;;;18.20;19.50;;;;;;6276464;22;20171;-84
2021/07/29 06:21:31;;;;;;;5.00;2.70;;;17.80;22.30;;;;;;6262006;22;20558;-87
2021/07/29 06:23:57;;;;;;;2.90;2.70;;;17.90;22.80;;;;;;6249948;23;20157;-86
2021/07/29 06:26:23;;;;;;;5.37;2.40;;;17.80;22.60;;;;;;6275540;22;20164;-85
2021/07/29 06:28:48;;;;;;;3.43;2.77;;;17.80;1.00;;;;;;6252593;23;20201;-86
2021/07/29 06:31:14;;;;;;;3.03;2.37;;;18.10;1.00;;;;;;6276029;22;20507;-85
2021/07/29 06:33:40;;;;;;;4.20;2.67;;;18.20;1.00;;;;;;6279204;22;20158;-82
2021/07/29 06:36:05;;;;;;;4.33;3.07;;;18.40;1.00;;;;;;6277961;22;20566;-84
2021/07/29 06:38:31;;;;;;;4.40;2.60;;;18.60;1.00;;;;;;6255506;23;20172;-84
2021/07/29 06:40:57;;;;;;;5.27;2.77;;;18.80;1.00;;;;;;6276484;22;20165;-85
2021/07/29 06:43:22;;;;;;;4.67;2.63;;;19.00;1.00;;;;;;6253858;23;20252;-84
2021/07/29 06:45:48;;;;;;;5.60;2.80;;;19.10;1.00;;;;;;6277195;22;20172;-84
2021/07/29 06:48:15;;;;;;;3.00;2.57;;;19.20;1.00;;;;;;6276946;22;20166;-84
2021/07/29 06:50:40;;;;;;;3.23;2.20;;;19.40;1.00;;;;;;6277168;22;20611;-84
2021/07/29 06:53:06;;;;;;;4.07;2.33;;;19.50;1.00;;;;;;6276788;22;20163;-85
2021/07/29 06:55:31;;;;;;;3.37;2.63;;;19.50;1.00;;;;;;6277155;22;20166;-85
2021/07/29 06:57:57;;;;;;;3.10;2.60;;;19.50;1.00;;;;;;6254938;23;20175;-84
2021/07/29 07:00:22;;;;;;;3.13;2.27;;;19.50;1.00;;;;;;6279747;22;20216;-84
2021/07/29 07:02:48;;;;;;;5.27;2.53;;;19.60;1.00;;;;;;6278290;22;20587;-84
2021/07/29 07:05:17;;;;;;;3.37;2.20;;;;;;;;;;6253231;23;20178;-90
2021/07/29 07:07:44;;;;;;;3.20;2.77;;;19.90;1.00;;;;;;6251495;23;20142;-89
2021/07/29 07:10:11;;;;;;;5.47;2.10;;;;;;;;;;6253629;22;20174;-87
2021/07/29 07:12:37;;;;;;;4.17;2.77;;;20.00;1.00;;;;;;6248831;23;20173;-88
2021/07/29 07:15:04;;;;;;;5.90;2.50;;;19.90;1.00;;;;;;6250398;23;20159;-86
2021/07/29 07:17:30;;;;;;;2.53;2.30;;;19.90;1.00;;;;;;6250762;23;20177;-85
2021/07/29 07:19:59;;;;;;;3.67;2.70;;;19.90;1.00;;;;;;6275613;22;20858;-84
2021/07/29 07:22:26;;;;;;;3.47;2.53;;;20.10;1.00;;;;;;6250189;23;20191;-83
2021/07/29 07:24:51;;;;;;;3.47;2.30;;;20.10;1.00;;;;;;6253351;22;20160;-86
2021/07/29 07:27:17;;;;;;;3.47;2.50;;;20.10;1.00;;;;;;6250864;23;20161;-87
2021/07/29 07:29:43;;;;;;;3.13;2.83;;;20.30;1.00;;;;;;6249271;23;20161;-86
2021/07/29 07:32:09;;;;;;;2.57;2.10;;;20.30;1.00;;;;;;6276189;22;20215;-86
2021/07/29 07:34:35;;;;;;;4.27;2.23;;;;;;;;;;6250408;23;20180;-86
2021/07/29 07:37:01;;;;;;;2.63;2.17;;;20.90;1.00;;;;;;6250415;22;20696;-86
2021/07/29 07:39:26;;;;;;;2.13;1.93;;;20.90;1.00;;;;;;6274726;22;20213;-86
2021/07/29 07:41:53;;;;;;;2.37;2.17;;;20.80;1.00;;;;;;6273686;22;20187;-85
2021/07/29 07:44:18;;;;;;;2.03;1.83;;;20.80;1.00;;;;;;6275100;22;20157;-85
2021/07/29 07:46:44;;;;;;;2.17;1.97;;;20.70;1.00;;;;;;6275490;22;20168;-85
2021/07/29 07:49:12;;;;;;;3.70;2.20;;;20.60;1.00;;;;;;6275012;22;20165;-85
2021/07/29 07:51:37;;;;;;;5.53;2.40;;;20.50;1.00;;;;;;6274732;22;20163;-85
2021/07/29 07:54:03;;;;;;;2.30;2.10;;;20.50;1.00;;;;;;6274189;22;20198;-86
2021/07/29 07:56:29;;;;;;;3.20;2.20;;;20.50;1.00;;;;;;6273172;22;20171;-86
2021/07/29 07:58:55;;;;;;;2.90;2.00;;;20.60;1.00;;;;;;6272493;22;20178;-85
2021/07/29 08:01:20;;;;;;;4.43;3.43;;;20.60;1.00;;;;;;6248058;23;20165;-85
2021/07/29 08:03:47;;;;;;;5.40;2.27;;;20.40;1.00;;;;;;6272478;22;20188;-85
2021/07/29 08:06:13;;;;;;;5.37;2.60;;;20.40;1.00;;;;;;6249147;23;20163;-84
2021/07/29 08:08:39;;;;;;;3.00;2.53;;;20.40;1.00;;;;;;6252318;22;20159;-83
2021/07/29 08:11:05;;;;;;;2.30;2.10;;;;;;;;;;6277631;22;20167;-84
2021/07/29 08:13:31;;;;;;;6.23;2.43;;;20.50;1.00;;;;;;6253145;23;20213;-84
2021/07/29 08:15:57;;;;;;;2.13;1.70;;;20.60;1.00;;;;;;6278808;22;20172;-84
2021/07/29 08:18:23;;;;;;;6.53;2.37;;;20.80;1.00;;;;;;6276781;22;20910;-85
2021/07/29 08:20:48;;;;;;;3.50;2.50;;;20.80;1.00;;;;;;6277827;22;20223;-83
2021/07/29 08:23:14;;;;;;;2.60;2.03;;;21.00;1.00;;;;;;6276425;22;20218;-83
2021/07/29 08:25:41;;;;;;;3.80;2.33;;;21.10;1.00;;;;;;6276215;22;20183;-83
2021/07/29 08:28:07;;;;;;;4.20;2.10;;;21.30;1.00;;;;;;6277830;22;20154;-83
2021/07/29 08:30:33;;;;;;;6.10;2.47;;;;;;;;;;6273260;22;20525;-83
2021/07/29 08:33:09;;;;;;;3.40;2.00;;;21.90;1.00;;;;;;6251236;23;20554;-83
2021/07/29 08:35:36;;;;;;;3.73;1.90;;;21.90;1.00;;;;;;6251620;23;20154;-84
2021/07/29 08:38:04;;;;;;;7.73;2.03;;;22.20;1.00;;;;;;6250612;22;20196;-84
2021/07/29 08:40:30;;;;;;;1.93;1.57;;;21.80;1.00;;;;;;6276954;22;20773;-84
2021/07/29 08:42:57;;;;;;;3.30;1.83;;;21.80;1.00;;;;;;6252672;23;20189;-84
2021/07/29 08:45:23;;;;;;;2.13;1.93;;;22.00;1.00;;;;;;6276249;22;20179;-83
2021/07/29 08:47:55;;;;;;;4.00;1.60;;;22.10;1.00;;;;;;6278593;22;20191;-84
2021/07/29 08:50:22;;;;;;;3.27;1.87;;;21.80;1.00;;;;;;6250089;23;20217;-84
2021/07/29 08:52:50;;;;;;;4.47;1.83;;;21.90;1.00;;;;;;6273551;22;20205;-84
2021/07/29 08:55:16;;;;;;;3.83;1.57;;;22.00;1.00;;;;;;6248966;23;20171;-84
2021/07/29 08:57:42;;;;;;;3.50;1.90;;;21.90;1.00;;;;;;6276814;22;20161;-84
2021/07/29 09:00:10;;;;;;;5.33;1.87;;;22.20;1.00;;;;;;6274098;22;20224;-85
2021/07/29 09:02:36;;;;;;;2.17;1.40;;;;;;;;;;6249757;23;20197;-84
2021/07/29 09:05:21;;;;;;;4.70;1.90;;;22.20;1.00;;;;;;6249902;23;20181;-84
2021/07/29 09:08:07;;;;;;;1.10;1.00;;;22.20;1.00;;;;;;6279278;22;20166;-83
2021/07/29 09:10:40;;;;;;;2.77;1.57;;;22.20;1.00;;;;;;6254183;23;20142;-89
2021/07/29 09:13:16;;;;;;;1.40;1.30;;;22.30;1.00;;;;;;6253168;23;20489;-85
2021/07/29 09:15:44;;;;;;;1.73;1.23;;;22.70;1.00;;;;;;6247853;23;20507;-84
2021/07/29 09:18:09;;;;;;;2.40;1.40;;;22.90;1.00;;;;;;6252227;23;20626;-84
2021/07/29 09:20:37;;;;;;;2.10;1.03;;;23.00;1.00;;;;;;6275461;22;20168;-84
2021/07/29 09:23:13;;;;;;;2.90;1.60;;;23.20;1.00;;;;;;6250940;23;20199;-84
2021/07/29 09:25:39;;;;;;;1.73;1.17;;;22.90;1.00;;;;;;6252498;23;20178;-84
2021/07/29 09:28:05;;;;;;;3.00;1.30;;;22.70;1.00;;;;;;6254246;23;21100;-83
2021/07/29 09:30:31;;;;;;;2.13;1.40;;;22.50;1.00;;;;;;6278082;22;20599;-84
2021/07/29 09:33:05;;;;;;;2.43;1.03;;;22.40;1.00;;;;;;6256991;23;20286;-83
2021/07/29 09:35:34;;;;;;;1.70;1.60;;;22.40;1.00;;;;;;6256401;23;20162;-83
2021/07/29 09:38:10;;;;;;;1.33;1.00;;;22.60;1.00;;;;;;6254766;23;20214;-84
2021/07/29 09:40:43;;;;;;;2.10;1.60;;;22.80;1.00;;;;;;6251590;23;20249;-83
2021/07/29 09:43:12;;;;;;;1.47;1.37;;;23.20;1.00;;;;;;6255102;23;20186;-83
2021/07/29 09:45:39;;;;;;;3.93;1.10;;;23.20;1.00;;;;;;6251343;23;20170;-84
2021/07/29 09:48:06;;;;;;;4.90;2.20;;;22.80;1.00;;;;;;6253229;23;20221;-83
2021/07/29 09:50:33;;;;;;;2.83;2.03;;;22.80;1.00;;;;;;6258584;22;20217;-84
2021/07/29 09:52:59;;;;;;;2.97;1.60;;;22.60;1.00;;;;;;6251795;23;20244;-83
2021/07/29 09:55:27;;;;;;;4.53;1.40;;;22.60;1.00;;;;;;6279334;22;20182;-83
2021/07/29 09:57:53;;;;;;;1.87;1.50;;;22.50;1.00;;;;;;6253579;23;20235;-84
2021/07/29 10:00:19;;;;;;;3.43;1.60;;;22.60;1.00;;;;;;6280754;22;20165;-81
2021/07/29 10:02:46;;;;;;;2.83;1.80;;;22.70;1.00;;;;;;6277732;22;20587;-83
2021/07/29 10:05:15;;;;;;;4.37;1.60;;;22.80;1.00;;;;;;6253350;23;20187;-84
2021/07/29 10:07:45;;;;;;;5.20;1.43;;;22.90;1.00;;;;;;6249600;23;20190;-85
2021/07/29 10:10:12;;;;;;;2.30;1.30;;;23.10;1.00;;;;;;6251695;23;20238;-84
2021/07/29 10:12:38;;;;;;;3.17;1.50;;;23.30;1.00;;;;;;6251601;23;20189;-85
2021/07/29 10:15:05;;;;;;;1.30;1.10;;;23.30;1.00;;;;;;6250579;23;20169;-83
2021/07/29 10:17:33;;;;;;;1.70;1.30;;;23.30;1.00;;;;;;6252378;23;20170;-83
2021/07/29 10:20:20;;;;;;;2.23;1.50;;;23.60;1.00;;;;;;6253531;23;20176;-81
2021/07/29 10:22:48;;;;;;;1.47;1.30;;;23.60;1.00;;;;;;6254227;23;20323;-82
2021/07/29 10:25:14;;;;;;;3.27;1.80;;;23.50;1.00;;;;;;6253277;23;20256;-84
2021/07/29 10:27:41;;;;;;;1.30;1.20;;;23.70;1.00;;;;;;6254899;23;20518;-86
2021/07/29 10:30:19;;;;;;;2.50;1.23;;;23.90;1.00;;;;;;6253146;23;20171;-84
2021/07/29 10:32:49;;;;;;;2.53;1.30;;;23.70;1.00;;;;;;6253272;23;20208;-87
2021/07/29 10:35:30;;;;;;;1.73;1.33;;;23.60;1.00;;;;;;6249379;23;20499;-85
2021/07/29 10:37:59;;;;;;;3.73;1.60;;;23.50;1.00;;;;;;6251032;23;20172;-84
2021/07/29 10:40:39;;;;;;;2.10;1.40;;;23.10;1.00;;;;;;6253105;23;20159;-84
2021/07/29 10:43:23;;;;;;;2.77;1.70;;;22.90;1.00;;;;;;6254949;23;20197;-85
2021/07/29 10:46:02;;;;;;;1.60;1.30;;;22.60;1.00;;;;;;6254780;23;20154;-90
2021/07/29 10:48:43;;;;;;;3.13;1.90;;;22.60;1.00;;;;;;6227614;23;20166;-86
2021/07/29 10:51:22;;;;;;;3.23;1.90;;;22.70;1.00;;;;;;6251770;23;20221;-84
2021/07/29 10:53:56;;;;;;;1.53;1.17;;;22.80;1.00;;;;;;6252396;23;20476;-83
2021/07/29 10:56:23;;;;;;;2.60;1.80;;;22.60;1.00;;;;;;6254589;23;20155;-84
2021/07/29 10:58:54;;;;;;;1.93;1.40;;;22.50;1.00;;;;;;6255569;23;20176;-86
2021/07/29 11:01:21;;;;;;;3.33;1.50;;;22.60;1.00;;;;;;6252814;23;20161;-85
2021/07/29 11:03:58;;;;;;;2.23;1.33;;;22.70;1.00;;;;;;6252511;23;20215;-87
2021/07/29 11:06:40;;;;;;;1.63;1.47;;;22.70;1.00;;;;;;6252660;23;20156;-89
2021/07/29 11:09:19;;;;;;;2.07;1.70;;;22.80;1.00;;;;;;6253733;23;20147;-86
2021/07/29 11:11:50;;;;;;;2.00;1.30;;;23.00;1.00;;;;;;6252829;23;20478;-87
2021/07/29 11:14:42;;;;;;;3.00;1.50;;;23.90;1.00;;;;;;6252402;23;20160;-87
2021/07/29 11:17:09;;;;;;;2.50;1.40;;;23.90;1.00;;;;;;6245754;23;20683;-88
2021/07/29 11:19:45;;;;;;;2.63;1.20;;;23.90;1.00;;;;;;6278736;22;20171;-86
2021/07/29 11:22:11;;;;;;;2.20;1.10;;;23.30;1.00;;;;;;6252846;23;20283;-86
2021/07/29 11:24:37;;;;;;;1.60;1.50;;;23.40;1.00;;;;;;6252946;23;20163;-87
2021/07/29 11:27:07;;;;;;;2.30;1.50;;;23.30;1.00;;;;;;6253406;23;20214;-86
2021/07/29 11:29:33;;;;;;;1.50;1.10;;;;;;;;;;6250524;23;20217;-86
2021/07/29 11:31:59;;;;;;;1.20;1.10;;;23.10;1.00;;;;;;6252719;23;20569;-86
2021/07/29 11:34:35;;;;;;;1.13;1.03;;;23.30;1.00;;;;;;6252933;23;20182;-87
2021/07/29 11:37:01;;;;;;;1.83;1.20;;;23.40;1.00;;;;;;6253339;23;20141;-86
2021/07/29 11:39:38;;;;;;;1.93;1.40;;;23.70;1.00;;;;;;6250603;23;20195;-85
2021/07/29 11:42:04;;;;;;;3.03;1.40;;;23.60;1.00;;;;;;6251405;22;20176;-86
2021/07/29 11:44:49;;;;;;;2.10;1.40;;;24.20;1.00;;;;;;6252393;22;20171;-86
2021/07/29 11:47:15;;;;;;;3.10;1.40;;;24.20;1.00;;;;;;6253255;23;20163;-87
2021/07/29 11:49:46;;;;;;;1.40;1.30;;;24.50;1.00;;;;;;6277944;22;20172;-87
2021/07/29 11:52:13;;;;;;;2.07;1.30;;;24.60;1.00;;;;;;6252919;22;20158;-86
2021/07/29 11:54:39;;;;;;;1.00;1.00;;;24.10;1.00;;;;;;6254895;23;20193;-88
2021/07/29 11:57:09;;;;;;;2.77;1.73;;;23.60;1.00;;;;;;6278121;22;20166;-87
2021/07/29 11:59:46;;;;;;;2.43;1.20;;;23.60;1.00;;;;;;6253121;23;20165;-88
2021/07/29 12:02:12;;;;;;;1.43;1.30;;;;;;;;;;6254120;23;20184;-89
2021/07/29 12:04:43;;;;;;;2.30;1.20;;;23.40;1.00;;;;;;6252769;23;20231;-87
2021/07/29 12:07:09;;;;;;;1.83;1.30;;;23.30;1.00;;;;;;6249296;23;20216;-88
2021/07/29 12:09:40;;;;;;;4.03;1.60;;;23.60;1.00;;;;;;6250171;23;20190;-80
2021/07/29 12:12:10;;;;;;;2.60;1.08;;;26.60;1.00;;;;;;6249290;23;20203;-90
2021/07/29 12:14:36;;;;;;;3.42;1.30;;;26.60;1.00;;;;;;6251726;23;20150;-88
2021/07/29 12:17:02;;;;;;;1.27;1.13;;;29.10;1.00;;;;;;6250539;23;20263;-85
2021/07/29 12:19:28;;;;;;;3.92;1.00;;;27.60;1.00;;;;;;6250285;23;20198;-85
2021/07/29 12:21:55;;;;;;;1.55;1.02;;;28.90;1.00;;;;;;6276553;22;20201;-84
2021/07/29 12:24:21;;;;;;;1.30;1.20;;;28.80;1.00;;;;;;6276811;22;20161;-85
2021/07/29 12:27:09;;;;;;;1.60;1.25;;;28.50;1.00;;;;;;6250797;23;20184;-86
2021/07/29 12:29:42;;;;;;;1.20;1.00;;;29.70;1.00;;;;;;6249986;23;20621;-88
2021/07/29 12:32:32;;;;;;;3.00;1.05;;;29.60;1.00;;;;;;6251271;23;20181;-89
2021/07/29 12:34:57;;;;;;;3.20;1.60;;;29.70;1.00;;;;;;6227147;23;20241;-89
2021/07/29 12:37:36;;;;;;;1.58;1.27;;;29.90;1.00;;;;;;6278471;22;20149;-86
2021/07/29 12:40:04;;;;;;;1.60;1.50;;;29.30;1.00;;;;;;6226443;23;20204;-88
2021/07/29 12:42:31;;;;;;;2.65;1.17;;;28.00;1.00;;;;;;6248379;23;20245;-86
2021/07/29 12:45:07;;;;;;;1.30;1.20;;;28.00;1.00;;;;;;6249757;23;20169;-88
2021/07/29 12:47:33;;;;;;;1.52;1.33;;;;;;;;;;6250102;23;20532;-89
2021/07/29 12:50:00;;;;;;;3.97;1.60;;;;;;;;;;6251418;23;20237;-90
2021/07/29 12:52:26;;;;;;;1.10;1.00;;;26.10;1.00;;;;;;6254130;23;20169;-89
2021/07/29 12:55:09;;;;;;;2.28;1.30;;;27.60;1.00;;;;;;6227456;23;20165;-89
2021/07/29 12:57:54;;;;;;;2.03;1.40;;;28.20;1.00;;;;;;6252404;23;20153;-89
2021/07/29 13:00:24;;;;;;;1.42;1.33;;;27.50;1.00;;;;;;6252679;23;20162;-88
2021/07/29 13:02:51;;;;;;;1.92;1.30;;;27.50;1.00;;;;;;6251143;23;20201;-88